sensor_id;sensor_type;location;lat;lon;timestamp;temperature;humidity
56869;DHT22;42754;0.000;0.000;2022-08-01T00:00:24;19.20;99.90
56869;DHT22;42754;0.000;0.000;2022-08-01T00:02:50;19.20;99.90
56869;DHT22;42754;0.000;0.000;2022-08-01T00:05:17;19.20;99.90
56869;DHT22;42754;0.000;0.000;2022-08-01T00:07:43;19.10;99.90
56869;DHT22;42754;0.000;0.000;2022-08-01T00:10:12;19.10;99.90
56869;DHT22;42754;0.000;0.000;2022-08-01T00:12:39;19.20;99.90
56869;DHT22;42754;0.000;0.000;2022-08-01T00:15:05;19.20;99.90
56869;DHT22;42754;0.000;0.000;2022-08-01T00:17:32;19.10;99.90
56869;DHT22;42754;0.000;0.000;2022-08-01T00:19:58;19.10;99.90
56869;DHT22;42754;0.000;0.000;2022-08-01T00:22:23;19.20;99.90
56869;DHT22;42754;0.000;0.000;2022-08-01T00:24:51;19.10;99.90
56869;DHT22;42754;0.000;0.000;2022-08-01T00:27:16;19.10;99.90
56869;DHT22;42754;0.000;0.000;2022-08-01T00:29:43;19.20;99.90
56869;DHT22;42754;0.000;0.000;2022-08-01T00:32:09;19.10;99.90
56869;DHT22;42754;0.000;0.000;2022-08-01T00:34:34;19.20;99.90
56869;DHT22;42754;0.000;0.000;2022-08-01T00:37:00;19.20;99.90
56869;DHT22;42754;0.000;0.000;2022-08-01T00:39:26;19.20;99.90
56869;DHT22;42754;0.000;0.000;2022-08-01T00:41:52;19.20;99.90
56869;DHT22;42754;0.000;0.000;2022-08-01T00:44:18;19.20;99.90
56869;DHT22;42754;0.000;0.000;2022-08-01T00:46:43;19.10;99.90
56869;DHT22;42754;0.000;0.000;2022-08-01T00:49:09;19.20;99.90
56869;DHT22;42754;0.000;0.000;2022-08-01T00:51:35;19.10;99.90
56869;DHT22;42754;0.000;0.000;2022-08-01T00:54:01;19.10;99.90
56869;DHT22;42754;0.000;0.000;2022-08-01T00:56:27;19.00;99.90
56869;DHT22;42754;0.000;0.000;2022-08-01T00:58:55;19.00;99.90
56869;DHT22;42754;0.000;0.000;2022-08-01T01:01:21;19.00;99.90
56869;DHT22;42754;0.000;0.000;2022-08-01T01:03:51;19.00;99.90
56869;DHT22;42754;0.000;0.000;2022-08-01T01:09:21;19.00;99.90
56869;DHT22;42754;0.000;0.000;2022-08-01T01:14:40;18.90;99.90
56869;DHT22;42754;0.000;0.000;2022-08-01T01:17:12;18.90;99.90
56869;DHT22;42754;0.000;0.000;2022-08-01T01:19:51;18.90;99.90
56869;DHT22;42754;0.000;0.000;2022-08-01T01:28:35;18.80;99.90
56869;DHT22;42754;0.000;0.000;2022-08-01T01:31:08;18.90;99.90
56869;DHT22;42754;0.000;0.000;2022-08-01T01:33:34;18.80;99.90
56869;DHT22;42754;0.000;0.000;2022-08-01T01:36:07;18.80;99.90
56869;DHT22;42754;0.000;0.000;2022-08-01T01:38:37;18.80;99.90
56869;DHT22;42754;0.000;0.000;2022-08-01T01:41:08;18.80;99.90
56869;DHT22;42754;0.000;0.000;2022-08-01T01:43:37;18.80;99.90
56869;DHT22;42754;0.000;0.000;2022-08-01T01:46:04;18.80;99.90
56869;DHT22;42754;0.000;0.000;2022-08-01T01:48:32;18.80;99.90
56869;DHT22;42754;0.000;0.000;2022-08-01T01:50:59;18.70;99.90
56869;DHT22;42754;0.000;0.000;2022-08-01T01:53:28;18.70;99.90
56869;DHT22;42754;0.000;0.000;2022-08-01T01:55:57;18.70;99.90
56869;DHT22;42754;0.000;0.000;2022-08-01T01:58:27;18.70;99.90
56869;DHT22;42754;0.000;0.000;2022-08-01T02:00:55;18.70;99.90
56869;DHT22;42754;0.000;0.000;2022-08-01T02:03:25;18.60;99.90
56869;DHT22;42754;0.000;0.000;2022-08-01T02:05:53;18.60;99.90
56869;DHT22;42754;0.000;0.000;2022-08-01T02:08:20;18.70;99.90
56869;DHT22;42754;0.000;0.000;2022-08-01T02:10:46;18.60;99.90
56869;DHT22;42754;0.000;0.000;2022-08-01T02:13:36;18.60;99.90
56869;DHT22;42754;0.000;0.000;2022-08-01T02:16:04;18.60;99.90
56869;DHT22;42754;0.000;0.000;2022-08-01T02:18:32;18.60;99.90
56869;DHT22;42754;0.000;0.000;2022-08-01T02:20:59;18.60;99.90
56869;DHT22;42754;0.000;0.000;2022-08-01T02:23:34;18.60;99.90
56869;DHT22;42754;0.000;0.000;2022-08-01T02:26:03;18.60;99.90
56869;DHT22;42754;0.000;0.000;2022-08-01T02:28:57;18.50;99.90
56869;DHT22;42754;0.000;0.000;2022-08-01T02:31:24;18.50;99.90
56869;DHT22;42754;0.000;0.000;2022-08-01T02:34:00;18.60;99.90
56869;DHT22;42754;0.000;0.000;2022-08-01T02:36:34;18.50;99.90
56869;DHT22;42754;0.000;0.000;2022-08-01T02:39:08;18.60;99.90
56869;DHT22;42754;0.000;0.000;2022-08-01T02:41:41;18.50;99.90
56869;DHT22;42754;0.000;0.000;2022-08-01T02:44:09;18.60;99.90
56869;DHT22;42754;0.000;0.000;2022-08-01T02:46:49;18.50;99.90
56869;DHT22;42754;0.000;0.000;2022-08-01T02:49:16;18.50;99.90
56869;DHT22;42754;0.000;0.000;2022-08-01T02:51:54;18.50;99.90
56869;DHT22;42754;0.000;0.000;2022-08-01T02:54:22;18.50;99.90
56869;DHT22;42754;0.000;0.000;2022-08-01T02:56:48;18.50;99.90
56869;DHT22;42754;0.000;0.000;2022-08-01T02:59:18;18.50;99.90
56869;DHT22;42754;0.000;0.000;2022-08-01T03:01:48;18.50;99.90
56869;DHT22;42754;0.000;0.000;2022-08-01T03:04:14;18.50;99.90
56869;DHT22;42754;0.000;0.000;2022-08-01T03:06:43;18.60;99.90
56869;DHT22;42754;0.000;0.000;2022-08-01T03:09:09;18.50;99.90
56869;DHT22;42754;0.000;0.000;2022-08-01T03:11:39;18.50;99.90
56869;DHT22;42754;0.000;0.000;2022-08-01T03:14:08;18.50;99.90
56869;DHT22;42754;0.000;0.000;2022-08-01T03:16:37;18.50;99.90
56869;DHT22;42754;0.000;0.000;2022-08-01T03:19:03;18.60;99.90
56869;DHT22;42754;0.000;0.000;2022-08-01T03:21:31;18.50;99.90
56869;DHT22;42754;0.000;0.000;2022-08-01T03:23:59;18.50;99.90
56869;DHT22;42754;0.000;0.000;2022-08-01T03:26:31;18.50;99.90
56869;DHT22;42754;0.000;0.000;2022-08-01T03:29:02;18.50;99.90
56869;DHT22;42754;0.000;0.000;2022-08-01T03:31:28;18.40;99.90
56869;DHT22;42754;0.000;0.000;2022-08-01T03:33:54;18.40;99.90
56869;DHT22;42754;0.000;0.000;2022-08-01T03:36:23;18.30;99.90
56869;DHT22;42754;0.000;0.000;2022-08-01T03:38:51;18.40;99.90
56869;DHT22;42754;0.000;0.000;2022-08-01T03:41:21;18.30;99.90
56869;DHT22;42754;0.000;0.000;2022-08-01T03:43:56;18.30;99.90
56869;DHT22;42754;0.000;0.000;2022-08-01T03:46:30;18.20;99.90
56869;DHT22;42754;0.000;0.000;2022-08-01T03:49:01;18.30;99.90
56869;DHT22;42754;0.000;0.000;2022-08-01T03:51:31;18.30;99.90
56869;DHT22;42754;0.000;0.000;2022-08-01T03:54:00;18.30;99.90
56869;DHT22;42754;0.000;0.000;2022-08-01T03:56:26;18.30;99.90
56869;DHT22;42754;0.000;0.000;2022-08-01T03:58:53;18.30;99.90
56869;DHT22;42754;0.000;0.000;2022-08-01T04:01:20;18.40;99.90
56869;DHT22;42754;0.000;0.000;2022-08-01T04:03:46;18.40;99.90
56869;DHT22;42754;0.000;0.000;2022-08-01T04:06:12;18.40;99.90
56869;DHT22;42754;0.000;0.000;2022-08-01T04:08:39;18.40;99.90
56869;DHT22;42754;0.000;0.000;2022-08-01T04:11:08;18.30;99.90
56869;DHT22;42754;0.000;0.000;2022-08-01T04:13:34;18.30;99.90
56869;DHT22;42754;0.000;0.000;2022-08-01T04:16:00;18.30;99.90
56869;DHT22;42754;0.000;0.000;2022-08-01T04:18:25;18.30;99.90
56869;DHT22;42754;0.000;0.000;2022-08-01T04:20:52;18.30;99.90
56869;DHT22;42754;0.000;0.000;2022-08-01T04:23:20;18.30;99.90
56869;DHT22;42754;0.000;0.000;2022-08-01T04:25:48;18.30;99.90
56869;DHT22;42754;0.000;0.000;2022-08-01T04:28:15;18.30;99.90
56869;DHT22;42754;0.000;0.000;2022-08-01T04:30:46;18.30;99.90
56869;DHT22;42754;0.000;0.000;2022-08-01T04:33:14;18.40;99.90
56869;DHT22;42754;0.000;0.000;2022-08-01T04:35:46;18.40;99.90
56869;DHT22;42754;0.000;0.000;2022-08-01T04:38:20;18.40;99.90
56869;DHT22;42754;0.000;0.000;2022-08-01T04:40:47;18.30;99.90
56869;DHT22;42754;0.000;0.000;2022-08-01T04:43:14;18.30;99.90
56869;DHT22;42754;0.000;0.000;2022-08-01T04:45:40;18.30;99.90
56869;DHT22;42754;0.000;0.000;2022-08-01T04:48:09;18.30;99.90
56869;DHT22;42754;0.000;0.000;2022-08-01T04:50:35;18.30;99.90
56869;DHT22;42754;0.000;0.000;2022-08-01T04:53:02;18.30;99.90
56869;DHT22;42754;0.000;0.000;2022-08-01T04:55:28;18.30;99.90
56869;DHT22;42754;0.000;0.000;2022-08-01T04:57:54;18.30;99.90
56869;DHT22;42754;0.000;0.000;2022-08-01T05:00:20;18.30;99.90
56869;DHT22;42754;0.000;0.000;2022-08-01T05:02:45;18.40;99.90
56869;DHT22;42754;0.000;0.000;2022-08-01T05:05:12;18.50;99.90
56869;DHT22;42754;0.000;0.000;2022-08-01T05:07:38;18.50;99.90
56869;DHT22;42754;0.000;0.000;2022-08-01T05:10:04;18.60;99.90
56869;DHT22;42754;0.000;0.000;2022-08-01T05:12:30;18.60;99.90
56869;DHT22;42754;0.000;0.000;2022-08-01T05:14:57;18.60;99.90
56869;DHT22;42754;0.000;0.000;2022-08-01T05:17:23;18.70;99.90
56869;DHT22;42754;0.000;0.000;2022-08-01T05:19:49;18.70;99.90
56869;DHT22;42754;0.000;0.000;2022-08-01T05:22:14;18.70;99.90
56869;DHT22;42754;0.000;0.000;2022-08-01T05:24:40;18.60;99.90
56869;DHT22;42754;0.000;0.000;2022-08-01T05:27:07;18.60;99.90
56869;DHT22;42754;0.000;0.000;2022-08-01T05:29:33;18.60;99.90
56869;DHT22;42754;0.000;0.000;2022-08-01T05:31:59;18.60;99.90
56869;DHT22;42754;0.000;0.000;2022-08-01T05:34:26;18.60;99.90
56869;DHT22;42754;0.000;0.000;2022-08-01T05:36:52;18.60;99.90
56869;DHT22;42754;0.000;0.000;2022-08-01T05:39:17;18.60;99.90
56869;DHT22;42754;0.000;0.000;2022-08-01T05:41:44;18.60;99.90
56869;DHT22;42754;0.000;0.000;2022-08-01T05:44:10;18.60;99.90
56869;DHT22;42754;0.000;0.000;2022-08-01T05:46:36;18.60;99.90
56869;DHT22;42754;0.000;0.000;2022-08-01T05:49:03;18.60;99.90
56869;DHT22;42754;0.000;0.000;2022-08-01T05:51:29;18.60;99.90
56869;DHT22;42754;0.000;0.000;2022-08-01T05:53:56;18.60;99.90
56869;DHT22;42754;0.000;0.000;2022-08-01T05:56:22;18.50;99.90
56869;DHT22;42754;0.000;0.000;2022-08-01T05:58:51;18.50;99.90
56869;DHT22;42754;0.000;0.000;2022-08-01T06:01:18;18.50;99.90
56869;DHT22;42754;0.000;0.000;2022-08-01T06:03:44;18.60;99.90
56869;DHT22;42754;0.000;0.000;2022-08-01T06:06:10;18.50;99.90
56869;DHT22;42754;0.000;0.000;2022-08-01T06:08:36;18.50;99.90
56869;DHT22;42754;0.000;0.000;2022-08-01T06:11:02;18.60;99.90
56869;DHT22;42754;0.000;0.000;2022-08-01T06:13:27;18.60;99.90
56869;DHT22;42754;0.000;0.000;2022-08-01T06:15:53;18.60;99.90
56869;DHT22;42754;0.000;0.000;2022-08-01T06:18:20;18.70;99.90
56869;DHT22;42754;0.000;0.000;2022-08-01T06:20:46;18.60;99.90
56869;DHT22;42754;0.000;0.000;2022-08-01T06:23:12;18.60;99.90
56869;DHT22;42754;0.000;0.000;2022-08-01T06:25:39;18.60;99.90
56869;DHT22;42754;0.000;0.000;2022-08-01T06:28:04;18.60;99.90
56869;DHT22;42754;0.000;0.000;2022-08-01T06:30:30;18.70;99.90
56869;DHT22;42754;0.000;0.000;2022-08-01T06:32:56;18.80;99.90
56869;DHT22;42754;0.000;0.000;2022-08-01T06:35:25;18.70;99.90
56869;DHT22;42754;0.000;0.000;2022-08-01T06:37:50;18.70;99.90
56869;DHT22;42754;0.000;0.000;2022-08-01T06:40:17;18.70;99.90
56869;DHT22;42754;0.000;0.000;2022-08-01T06:42:43;18.80;99.90
56869;DHT22;42754;0.000;0.000;2022-08-01T06:45:11;18.80;99.90
56869;DHT22;42754;0.000;0.000;2022-08-01T06:47:38;19.00;99.90
56869;DHT22;42754;0.000;0.000;2022-08-01T06:50:08;19.00;99.90
56869;DHT22;42754;0.000;0.000;2022-08-01T06:52:34;19.10;99.90
56869;DHT22;42754;0.000;0.000;2022-08-01T06:55:00;19.10;99.90
56869;DHT22;42754;0.000;0.000;2022-08-01T06:57:26;19.20;99.90
56869;DHT22;42754;0.000;0.000;2022-08-01T06:59:55;19.40;99.90
56869;DHT22;42754;0.000;0.000;2022-08-01T07:02:21;19.40;99.90
56869;DHT22;42754;0.000;0.000;2022-08-01T07:04:47;19.50;99.90
56869;DHT22;42754;0.000;0.000;2022-08-01T07:07:12;19.70;99.90
56869;DHT22;42754;0.000;0.000;2022-08-01T07:09:40;19.60;99.90
56869;DHT22;42754;0.000;0.000;2022-08-01T07:12:08;19.60;99.90
56869;DHT22;42754;0.000;0.000;2022-08-01T07:14:34;19.60;99.90
56869;DHT22;42754;0.000;0.000;2022-08-01T07:17:00;19.70;99.90
56869;DHT22;42754;0.000;0.000;2022-08-01T07:19:31;19.70;99.90
56869;DHT22;42754;0.000;0.000;2022-08-01T07:21:56;19.90;99.90
56869;DHT22;42754;0.000;0.000;2022-08-01T07:24:22;20.00;99.90
56869;DHT22;42754;0.000;0.000;2022-08-01T07:26:48;19.80;99.90
56869;DHT22;42754;0.000;0.000;2022-08-01T07:29:14;19.70;99.90
56869;DHT22;42754;0.000;0.000;2022-08-01T07:31:41;19.60;99.90
56869;DHT22;42754;0.000;0.000;2022-08-01T07:34:07;19.50;99.90
56869;DHT22;42754;0.000;0.000;2022-08-01T07:36:34;19.40;99.90
56869;DHT22;42754;0.000;0.000;2022-08-01T07:38:59;19.30;99.90
56869;DHT22;42754;0.000;0.000;2022-08-01T07:41:26;19.20;99.90
56869;DHT22;42754;0.000;0.000;2022-08-01T07:43:52;19.20;99.90
56869;DHT22;42754;0.000;0.000;2022-08-01T07:46:21;19.20;99.90
56869;DHT22;42754;0.000;0.000;2022-08-01T07:48:50;19.30;99.90
56869;DHT22;42754;0.000;0.000;2022-08-01T07:51:16;19.30;99.90
56869;DHT22;42754;0.000;0.000;2022-08-01T07:53:41;19.40;99.90
56869;DHT22;42754;0.000;0.000;2022-08-01T07:56:12;19.40;99.90
56869;DHT22;42754;0.000;0.000;2022-08-01T07:58:37;19.50;99.90
56869;DHT22;42754;0.000;0.000;2022-08-01T08:01:04;19.50;99.90
56869;DHT22;42754;0.000;0.000;2022-08-01T08:03:30;19.70;99.90
56869;DHT22;42754;0.000;0.000;2022-08-01T08:05:55;19.90;99.90
56869;DHT22;42754;0.000;0.000;2022-08-01T08:08:21;19.80;99.90
56869;DHT22;42754;0.000;0.000;2022-08-01T08:10:48;19.80;99.90
56869;DHT22;42754;0.000;0.000;2022-08-01T08:13:13;19.80;99.90
56869;DHT22;42754;0.000;0.000;2022-08-01T08:15:39;19.80;99.90
56869;DHT22;42754;0.000;0.000;2022-08-01T08:18:05;19.90;99.90
56869;DHT22;42754;0.000;0.000;2022-08-01T08:20:31;20.10;99.90
56869;DHT22;42754;0.000;0.000;2022-08-01T08:22:57;20.30;99.90
56869;DHT22;42754;0.000;0.000;2022-08-01T08:25:25;20.20;99.90
56869;DHT22;42754;0.000;0.000;2022-08-01T08:27:51;20.20;99.90
56869;DHT22;42754;0.000;0.000;2022-08-01T08:30:17;20.30;99.90
56869;DHT22;42754;0.000;0.000;2022-08-01T08:32:43;20.30;99.90
56869;DHT22;42754;0.000;0.000;2022-08-01T08:35:09;20.10;99.90
56869;DHT22;42754;0.000;0.000;2022-08-01T08:37:35;20.00;99.90
56869;DHT22;42754;0.000;0.000;2022-08-01T08:40:03;19.80;99.90
56869;DHT22;42754;0.000;0.000;2022-08-01T08:42:29;19.80;99.90
56869;DHT22;42754;0.000;0.000;2022-08-01T08:44:55;19.90;99.90
56869;DHT22;42754;0.000;0.000;2022-08-01T08:47:22;19.90;99.90
56869;DHT22;42754;0.000;0.000;2022-08-01T08:49:53;19.80;99.90
56869;DHT22;42754;0.000;0.000;2022-08-01T08:52:20;19.90;99.90
56869;DHT22;42754;0.000;0.000;2022-08-01T08:54:49;19.90;99.90
56869;DHT22;42754;0.000;0.000;2022-08-01T08:57:15;19.90;99.90
56869;DHT22;42754;0.000;0.000;2022-08-01T08:59:43;20.00;99.90
56869;DHT22;42754;0.000;0.000;2022-08-01T09:02:10;20.00;99.90
56869;DHT22;42754;0.000;0.000;2022-08-01T09:04:37;19.90;99.90
56869;DHT22;42754;0.000;0.000;2022-08-01T09:07:05;19.90;99.90
56869;DHT22;42754;0.000;0.000;2022-08-01T09:09:31;20.00;99.90
56869;DHT22;42754;0.000;0.000;2022-08-01T09:11:58;19.90;99.90
56869;DHT22;42754;0.000;0.000;2022-08-01T09:14:25;20.00;99.90
56869;DHT22;42754;0.000;0.000;2022-08-01T09:17:06;20.00;99.90
56869;DHT22;42754;0.000;0.000;2022-08-01T09:19:47;20.10;99.90
56869;DHT22;42754;0.000;0.000;2022-08-01T09:22:15;20.20;99.90
56869;DHT22;42754;0.000;0.000;2022-08-01T09:25:06;20.10;99.90
56869;DHT22;42754;0.000;0.000;2022-08-01T09:27:33;20.10;99.90
56869;DHT22;42754;0.000;0.000;2022-08-01T09:32:34;19.80;99.90
56869;DHT22;42754;0.000;0.000;2022-08-01T09:35:29;19.80;99.90
56869;DHT22;42754;0.000;0.000;2022-08-01T09:38:21;19.80;99.90
56869;DHT22;42754;0.000;0.000;2022-08-01T09:40:58;19.90;99.90
56869;DHT22;42754;0.000;0.000;2022-08-01T09:43:26;19.90;99.90
56869;DHT22;42754;0.000;0.000;2022-08-01T09:45:52;19.90;99.90
56869;DHT22;42754;0.000;0.000;2022-08-01T09:48:19;20.10;99.90
56869;DHT22;42754;0.000;0.000;2022-08-01T09:50:47;20.30;99.90
56869;DHT22;42754;0.000;0.000;2022-08-01T09:53:14;20.20;99.90
56869;DHT22;42754;0.000;0.000;2022-08-01T09:55:41;20.40;99.90
56869;DHT22;42754;0.000;0.000;2022-08-01T09:58:08;20.40;99.90
56869;DHT22;42754;0.000;0.000;2022-08-01T10:00:35;20.40;99.90
56869;DHT22;42754;0.000;0.000;2022-08-01T10:03:21;20.20;99.90
56869;DHT22;42754;0.000;0.000;2022-08-01T10:05:47;20.10;99.90
56869;DHT22;42754;0.000;0.000;2022-08-01T10:08:13;20.10;99.90
56869;DHT22;42754;0.000;0.000;2022-08-01T10:10:39;20.10;99.90
56869;DHT22;42754;0.000;0.000;2022-08-01T10:13:08;20.00;99.90
56869;DHT22;42754;0.000;0.000;2022-08-01T10:15:34;20.00;99.90
56869;DHT22;42754;0.000;0.000;2022-08-01T10:18:01;20.10;99.90
56869;DHT22;42754;0.000;0.000;2022-08-01T10:20:30;20.10;99.90
56869;DHT22;42754;0.000;0.000;2022-08-01T10:22:59;20.00;99.90
56869;DHT22;42754;0.000;0.000;2022-08-01T10:25:28;20.30;99.90
56869;DHT22;42754;0.000;0.000;2022-08-01T10:27:54;20.40;99.90
56869;DHT22;42754;0.000;0.000;2022-08-01T10:30:22;20.50;99.90
56869;DHT22;42754;0.000;0.000;2022-08-01T10:32:49;20.50;99.90
56869;DHT22;42754;0.000;0.000;2022-08-01T10:35:15;20.40;99.90
56869;DHT22;42754;0.000;0.000;2022-08-01T10:37:46;20.40;99.90
56869;DHT22;42754;0.000;0.000;2022-08-01T10:40:15;20.40;99.90
56869;DHT22;42754;0.000;0.000;2022-08-01T10:42:43;20.40;99.90
56869;DHT22;42754;0.000;0.000;2022-08-01T10:45:12;20.60;99.90
56869;DHT22;42754;0.000;0.000;2022-08-01T10:47:58;20.80;99.90
56869;DHT22;42754;0.000;0.000;2022-08-01T10:50:31;21.10;99.90
56869;DHT22;42754;0.000;0.000;2022-08-01T10:53:07;21.40;99.90
56869;DHT22;42754;0.000;0.000;2022-08-01T10:58:22;21.60;99.90
56869;DHT22;42754;0.000;0.000;2022-08-01T11:00:48;21.60;99.90
56869;DHT22;42754;0.000;0.000;2022-08-01T11:03:13;21.50;99.90
56869;DHT22;42754;0.000;0.000;2022-08-01T11:05:42;21.70;99.90
56869;DHT22;42754;0.000;0.000;2022-08-01T11:08:27;21.70;99.90
56869;DHT22;42754;0.000;0.000;2022-08-01T11:11:00;21.70;99.90
56869;DHT22;42754;0.000;0.000;2022-08-01T11:16:39;21.80;99.90
56869;DHT22;42754;0.000;0.000;2022-08-01T11:19:07;21.90;99.90
56869;DHT22;42754;0.000;0.000;2022-08-01T11:27:29;22.00;99.90
56869;DHT22;42754;0.000;0.000;2022-08-01T11:32:49;22.20;99.90
56869;DHT22;42754;0.000;0.000;2022-08-01T11:35:16;22.30;99.90
56869;DHT22;42754;0.000;0.000;2022-08-01T11:37:42;22.50;99.90
56869;DHT22;42754;0.000;0.000;2022-08-01T11:40:20;22.50;99.90
56869;DHT22;42754;0.000;0.000;2022-08-01T11:42:47;22.50;99.90
56869;DHT22;42754;0.000;0.000;2022-08-01T11:45:13;22.60;99.90
56869;DHT22;42754;0.000;0.000;2022-08-01T11:47:48;22.60;99.90
56869;DHT22;42754;0.000;0.000;2022-08-01T11:50:35;22.60;99.90
56869;DHT22;42754;0.000;0.000;2022-08-01T11:53:04;22.70;99.90
56869;DHT22;42754;0.000;0.000;2022-08-01T11:55:30;22.80;99.90
56869;DHT22;42754;0.000;0.000;2022-08-01T11:58:01;22.70;99.90
56869;DHT22;42754;0.000;0.000;2022-08-01T12:00:28;22.60;99.90
56869;DHT22;42754;0.000;0.000;2022-08-01T12:03:04;22.70;99.90
56869;DHT22;42754;0.000;0.000;2022-08-01T12:05:33;22.50;99.20
56869;DHT22;42754;0.000;0.000;2022-08-01T12:08:00;22.60;99.90
56869;DHT22;42754;0.000;0.000;2022-08-01T12:10:28;22.70;99.50
56869;DHT22;42754;0.000;0.000;2022-08-01T12:13:00;22.90;99.90
56869;DHT22;42754;0.000;0.000;2022-08-01T12:15:35;22.90;99.90
56869;DHT22;42754;0.000;0.000;2022-08-01T12:18:03;22.80;99.70
56869;DHT22;42754;0.000;0.000;2022-08-01T12:20:34;22.70;99.70
56869;DHT22;42754;0.000;0.000;2022-08-01T12:23:02;22.70;99.30
56869;DHT22;42754;0.000;0.000;2022-08-01T12:25:30;22.70;99.90
56869;DHT22;42754;0.000;0.000;2022-08-01T12:27:59;22.90;99.90
56869;DHT22;42754;0.000;0.000;2022-08-01T12:30:30;23.00;99.60
56869;DHT22;42754;0.000;0.000;2022-08-01T12:32:57;23.00;99.40
56869;DHT22;42754;0.000;0.000;2022-08-01T12:35:27;23.00;99.60
56869;DHT22;42754;0.000;0.000;2022-08-01T12:37:57;23.10;98.90
56869;DHT22;42754;0.000;0.000;2022-08-01T12:42:54;23.30;98.50
56869;DHT22;42754;0.000;0.000;2022-08-01T12:47:50;23.50;97.20
56869;DHT22;42754;0.000;0.000;2022-08-01T12:50:24;23.40;97.80
56869;DHT22;42754;0.000;0.000;2022-08-01T12:52:52;23.30;98.00
56869;DHT22;42754;0.000;0.000;2022-08-01T12:55:25;23.30;98.50
56869;DHT22;42754;0.000;0.000;2022-08-01T12:58:12;23.10;98.20
56869;DHT22;42754;0.000;0.000;2022-08-01T13:00:39;23.40;98.00
56869;DHT22;42754;0.000;0.000;2022-08-01T13:03:15;23.60;97.30
56869;DHT22;42754;0.000;0.000;2022-08-01T13:05:53;23.40;96.40
56869;DHT22;42754;0.000;0.000;2022-08-01T13:08:40;23.50;97.30
56869;DHT22;42754;0.000;0.000;2022-08-01T13:11:10;23.40;96.50
56869;DHT22;42754;0.000;0.000;2022-08-01T13:13:49;23.70;96.70
56869;DHT22;42754;0.000;0.000;2022-08-01T13:16:20;23.50;96.60
56869;DHT22;42754;0.000;0.000;2022-08-01T13:18:51;23.40;96.10
56869;DHT22;42754;0.000;0.000;2022-08-01T13:21:19;23.30;96.50
56869;DHT22;42754;0.000;0.000;2022-08-01T13:24:11;23.40;97.70
56869;DHT22;42754;0.000;0.000;2022-08-01T13:29:15;23.40;97.40
56869;DHT22;42754;0.000;0.000;2022-08-01T13:31:44;23.40;96.70
56869;DHT22;42754;0.000;0.000;2022-08-01T13:34:10;23.20;96.90
56869;DHT22;42754;0.000;0.000;2022-08-01T13:36:38;23.50;96.80
56869;DHT22;42754;0.000;0.000;2022-08-01T13:39:04;23.90;95.60
56869;DHT22;42754;0.000;0.000;2022-08-01T13:41:50;24.00;96.20
56869;DHT22;42754;0.000;0.000;2022-08-01T13:44:16;23.80;95.00
56869;DHT22;42754;0.000;0.000;2022-08-01T13:46:42;24.00;95.10
56869;DHT22;42754;0.000;0.000;2022-08-01T13:49:09;24.50;94.50
56869;DHT22;42754;0.000;0.000;2022-08-01T13:51:39;24.80;94.90
56869;DHT22;42754;0.000;0.000;2022-08-01T13:54:06;24.90;94.50
56869;DHT22;42754;0.000;0.000;2022-08-01T13:56:34;24.60;94.60
56869;DHT22;42754;0.000;0.000;2022-08-01T13:58:59;24.00;95.30
56869;DHT22;42754;0.000;0.000;2022-08-01T14:01:25;23.70;94.70
56869;DHT22;42754;0.000;0.000;2022-08-01T14:03:51;24.10;95.70
56869;DHT22;42754;0.000;0.000;2022-08-01T14:06:19;24.00;95.60
56869;DHT22;42754;0.000;0.000;2022-08-01T14:08:46;24.50;95.70
56869;DHT22;42754;0.000;0.000;2022-08-01T14:11:12;24.90;93.80
56869;DHT22;42754;0.000;0.000;2022-08-01T14:13:38;24.40;93.30
56869;DHT22;42754;0.000;0.000;2022-08-01T14:16:06;24.00;94.50
56869;DHT22;42754;0.000;0.000;2022-08-01T14:18:33;23.80;94.80
56869;DHT22;42754;0.000;0.000;2022-08-01T14:20:59;23.80;94.70
56869;DHT22;42754;0.000;0.000;2022-08-01T14:23:25;23.80;95.40
56869;DHT22;42754;0.000;0.000;2022-08-01T14:25:54;24.00;95.60
56869;DHT22;42754;0.000;0.000;2022-08-01T14:28:20;24.50;93.10
56869;DHT22;42754;0.000;0.000;2022-08-01T14:30:46;24.50;94.20
56869;DHT22;42754;0.000;0.000;2022-08-01T14:33:13;24.40;93.10
56869;DHT22;42754;0.000;0.000;2022-08-01T14:35:39;24.50;94.10
56869;DHT22;42754;0.000;0.000;2022-08-01T14:38:05;24.40;92.90
56869;DHT22;42754;0.000;0.000;2022-08-01T14:40:31;24.40;93.00
56869;DHT22;42754;0.000;0.000;2022-08-01T14:42:58;24.70;92.10
56869;DHT22;42754;0.000;0.000;2022-08-01T14:45:23;24.90;92.10
56869;DHT22;42754;0.000;0.000;2022-08-01T14:47:49;25.00;91.90
56869;DHT22;42754;0.000;0.000;2022-08-01T14:50:15;25.30;91.30
56869;DHT22;42754;0.000;0.000;2022-08-01T14:52:42;25.50;91.00
56869;DHT22;42754;0.000;0.000;2022-08-01T14:55:09;25.40;91.10
56869;DHT22;42754;0.000;0.000;2022-08-01T14:57:36;25.30;91.00
56869;DHT22;42754;0.000;0.000;2022-08-01T15:00:05;25.30;91.00
56869;DHT22;42754;0.000;0.000;2022-08-01T15:02:31;25.10;90.60
56869;DHT22;42754;0.000;0.000;2022-08-01T15:04:58;24.60;90.60
56869;DHT22;42754;0.000;0.000;2022-08-01T15:07:24;25.10;90.50
56869;DHT22;42754;0.000;0.000;2022-08-01T15:09:50;25.20;90.60
56869;DHT22;42754;0.000;0.000;2022-08-01T15:12:15;24.70;90.10
56869;DHT22;42754;0.000;0.000;2022-08-01T15:14:41;24.40;90.60
56869;DHT22;42754;0.000;0.000;2022-08-01T15:17:46;24.30;92.00
56869;DHT22;42754;0.000;0.000;2022-08-01T15:20:06;24.30;91.90
56869;DHT22;42754;0.000;0.000;2022-08-01T15:22:33;24.10;90.80
56869;DHT22;42754;0.000;0.000;2022-08-01T15:25:00;23.90;91.70
56869;DHT22;42754;0.000;0.000;2022-08-01T15:27:28;24.20;91.10
56869;DHT22;42754;0.000;0.000;2022-08-01T15:29:55;24.10;90.90
56869;DHT22;42754;0.000;0.000;2022-08-01T15:32:21;24.10;90.20
56869;DHT22;42754;0.000;0.000;2022-08-01T15:34:47;24.40;90.60
56869;DHT22;42754;0.000;0.000;2022-08-01T15:37:13;24.60;90.30
56869;DHT22;42754;0.000;0.000;2022-08-01T15:39:41;24.90;90.00
56869;DHT22;42754;0.000;0.000;2022-08-01T15:42:12;24.90;90.30
56869;DHT22;42754;0.000;0.000;2022-08-01T15:44:38;24.90;90.20
56869;DHT22;42754;0.000;0.000;2022-08-01T15:47:04;25.00;87.80
56869;DHT22;42754;0.000;0.000;2022-08-01T15:49:31;24.70;89.60
56869;DHT22;42754;0.000;0.000;2022-08-01T15:51:57;24.30;89.10
56869;DHT22;42754;0.000;0.000;2022-08-01T15:54:23;24.50;90.10
56869;DHT22;42754;0.000;0.000;2022-08-01T15:56:48;24.40;89.50
56869;DHT22;42754;0.000;0.000;2022-08-01T15:59:20;24.70;87.70
56869;DHT22;42754;0.000;0.000;2022-08-01T16:01:46;24.90;88.60
56869;DHT22;42754;0.000;0.000;2022-08-01T16:04:14;25.00;86.20
56869;DHT22;42754;0.000;0.000;2022-08-01T16:06:41;25.10;84.90
56869;DHT22;42754;0.000;0.000;2022-08-01T16:09:07;25.10;87.30
56869;DHT22;42754;0.000;0.000;2022-08-01T16:11:33;25.00;86.50
56869;DHT22;42754;0.000;0.000;2022-08-01T16:13:58;24.80;84.40
56869;DHT22;42754;0.000;0.000;2022-08-01T16:16:29;24.80;86.30
56869;DHT22;42754;0.000;0.000;2022-08-01T16:18:54;24.60;84.60
56869;DHT22;42754;0.000;0.000;2022-08-01T16:21:20;24.60;82.80
56869;DHT22;42754;0.000;0.000;2022-08-01T16:23:50;24.50;82.50
56869;DHT22;42754;0.000;0.000;2022-08-01T16:26:17;24.40;82.60
56869;DHT22;42754;0.000;0.000;2022-08-01T16:28:47;24.30;82.20